»·PEaware :: SWA334 KDEN-KABQ

SWA334 :: KDEN-KABQ

FLIGHT INFORMATION

Flight Status: Arrived
Operator:
Southwest Airlines
More flights by this operator :: More flights under this callsign
Pilot: John M. (9732)
Aircraft: BOEING 737-700
(B737)
More flights by this aircraft type
Origin: KDEN Denver Intl
United States
Destination: KABQ Albuquerque Intl Sunport
United States
More flights between these airports :: More routes between these airports
Route: SUDDZ1 SUDDZ DATME SNDIA4
File this flight plan on PilotEdge
Remarks: RMK / SIMBRIEF
Altitude:
(Current/Filed)
36,000ft
Speed:
(Current/Filed)
458kts
Departed: 20-Aug-22 04:05 PM
Arrived: 20-Aug-22 05:02 PM
Distance/Time
Traveled:
303nm/0:57
Distance/Time
To Go:
Arrived

Flight Plot

Page will automatically refresh every two minutes.

Flight plan parsing failed; only flown route is shown


Map Options




Map Legend


Flown Route
Filed Route
Departure Airport
Arrival Airport
Navaid (VOR, NDB)
Fix

Horizontal Profiles

Position Reports

Time Latitude Longitude Heading Altitude Ground
Speed
20-Aug-22 15:24 39.862608 -104.672567 358 5384ft 0kts
20-Aug-22 15:25 39.862608 -104.672567 358 5384ft 0kts
20-Aug-22 15:26 39.862608 -104.672567 358 5384ft 0kts
20-Aug-22 15:27 39.862608 -104.672567 358 5384ft 0kts
20-Aug-22 15:28 39.862608 -104.672567 358 5384ft 0kts
20-Aug-22 15:29 39.862608 -104.672567 358 5384ft 0kts
20-Aug-22 15:30 39.862608 -104.672567 358 5384ft 0kts
20-Aug-22 15:31 39.862608 -104.672567 358 5384ft 0kts
20-Aug-22 15:32 39.862608 -104.672567 358 5384ft 0kts
20-Aug-22 15:33 39.862608 -104.672567 358 5384ft 0kts
20-Aug-22 15:34 39.862608 -104.672567 358 5384ft 0kts
20-Aug-22 15:35 39.862608 -104.672567 358 5384ft 0kts
20-Aug-22 15:36 39.862608 -104.672567 358 5384ft 0kts
20-Aug-22 15:36 39.862608 -104.672567 358 5384ft 0kts
20-Aug-22 15:38 39.862608 -104.672567 358 5384ft 0kts
20-Aug-22 15:39 39.862608 -104.672567 358 5384ft 0kts
20-Aug-22 15:40 39.862608 -104.672567 358 5384ft 0kts
20-Aug-22 15:41 39.862608 -104.672567 358 5384ft 0kts
20-Aug-22 15:41 39.862608 -104.672567 358 5384ft 0kts
20-Aug-22 15:42 39.862608 -104.672567 358 5384ft 0kts
20-Aug-22 15:43 39.862608 -104.672567 358 5384ft 0kts
20-Aug-22 15:45 39.862608 -104.672567 358 5384ft 0kts
20-Aug-22 15:46 39.862608 -104.672567 358 5384ft 0kts
20-Aug-22 15:46 39.862608 -104.672567 358 5384ft 0kts
20-Aug-22 15:47 39.862608 -104.672567 358 5384ft 0kts
20-Aug-22 15:48 39.862528 -104.672565 358 5380ft 2kts
20-Aug-22 15:49 39.861988 -104.672768 40 5382ft 2kts
20-Aug-22 15:50 39.861887 -104.673076 84 5384ft 0kts
20-Aug-22 15:51 39.861887 -104.673076 84 5384ft 0kts
20-Aug-22 15:52 39.861887 -104.673076 84 5384ft 0kts
20-Aug-22 15:53 39.861887 -104.673076 84 5384ft 0kts
20-Aug-22 15:54 39.861887 -104.673076 84 5384ft 0kts
20-Aug-22 15:55 39.861915 -104.672483 87 5384ft 4kts
20-Aug-22 15:56 39.861711 -104.670416 136 5382ft 5kts
20-Aug-22 15:57 39.861227 -104.668764 89 5384ft 5kts
20-Aug-22 15:58 39.861276 -104.666508 91 5384ft 6kts
20-Aug-22 15:59 39.861069 -104.664346 90 5384ft 6kts
20-Aug-22 16:00 39.861052 -104.662178 91 5386ft 5kts
20-Aug-22 16:01 39.861044 -104.661726 91 5386ft 0kts
20-Aug-22 16:02 39.861039 -104.661452 91 5386ft 6kts
20-Aug-22 16:03 39.860386 -104.660145 180 5389ft 2kts
20-Aug-22 16:04 39.836835 -104.660722 180 5851ft 185kts
20-Aug-22 16:05 39.781235 -104.661161 180 8569ft 221kts
20-Aug-22 16:06 39.712358 -104.661985 180 10491ft 275kts
20-Aug-22 16:07 39.633467 -104.664879 190 13893ft 293kts
20-Aug-22 16:08 39.547901 -104.689809 192 16472ft 341kts
20-Aug-22 16:09 39.452053 -104.724778 201 18938ft 377kts
20-Aug-22 16:10 39.353823 -104.776239 202 19235ft 382kts
20-Aug-22 16:11 39.253059 -104.824090 192 22144ft 393kts
20-Aug-22 16:12 39.141391 -104.831740 190 24632ft 408kts
20-Aug-22 16:13 39.031585 -104.872341 201 27108ft 408kts
20-Aug-22 16:14 38.924664 -104.915141 201 30070ft 399kts
20-Aug-22 16:15 38.819950 -104.955667 201 32572ft 387kts
20-Aug-22 16:16 38.718621 -104.994794 202 34784ft 376kts
20-Aug-22 16:17 38.619720 -105.032791 203 36150ft 375kts
20-Aug-22 16:18 38.520538 -105.070775 203 36147ft 365kts
20-Aug-22 16:19 38.423501 -105.107904 203 36149ft 364kts
20-Aug-22 16:20 38.326139 -105.145024 203 36157ft 364kts
20-Aug-22 16:21 38.229324 -105.181818 203 36166ft 365kts
20-Aug-22 16:22 38.131631 -105.218833 203 36182ft 363kts
20-Aug-22 16:23 38.035087 -105.255341 203 36194ft 362kts
20-Aug-22 16:24 37.938515 -105.291754 203 36204ft 361kts
20-Aug-22 16:25 37.846883 -105.339357 214 36209ft 352kts
20-Aug-22 16:26 37.760660 -105.398148 213 36207ft 354kts
20-Aug-22 16:27 37.673984 -105.456015 213 36192ft 352kts
20-Aug-22 16:28 37.587054 -105.513662 213 36128ft 352kts
20-Aug-22 16:29 37.500279 -105.570989 213 36246ft 351kts
20-Aug-22 16:30 37.413721 -105.628028 213 36284ft 351kts
20-Aug-22 16:31 37.327284 -105.684849 213 36293ft 350kts
20-Aug-22 16:32 37.240659 -105.741641 213 36175ft 351kts
20-Aug-22 16:33 37.154341 -105.798079 212 36175ft 350kts
20-Aug-22 16:34 37.067694 -105.854591 212 36197ft 351kts
20-Aug-22 16:35 36.980683 -105.911196 212 36195ft 352kts
20-Aug-22 16:36 36.893787 -105.967577 212 36199ft 353kts
20-Aug-22 16:37 36.806440 -106.024108 212 36209ft 353kts
20-Aug-22 16:38 36.719368 -106.080332 211 36216ft 354kts
20-Aug-22 16:39 36.629453 -106.133099 204 35764ft 364kts
20-Aug-22 16:40 36.534175 -106.173975 203 34371ft 363kts
20-Aug-22 16:41 36.437480 -106.216908 204 32859ft 374kts
20-Aug-22 16:42 36.338706 -106.260696 203 31401ft 381kts
20-Aug-22 16:43 36.233507 -106.307084 203 29776ft 412kts
20-Aug-22 16:44 36.126918 -106.353910 202 27986ft 400kts
20-Aug-22 16:45 36.022643 -106.398965 202 26298ft 392kts
20-Aug-22 16:46 35.920515 -106.442981 201 24699ft 387kts
20-Aug-22 16:47 35.819681 -106.484501 200 22814ft 372kts
20-Aug-22 16:48 35.724559 -106.523241 200 21030ft 352kts
20-Aug-22 16:49 35.632855 -106.560580 200 18976ft 345kts
20-Aug-22 16:50 35.544151 -106.602830 205 16552ft 337kts
20-Aug-22 16:51 35.460412 -106.648313 204 14216ft 319kts
20-Aug-22 16:52 35.380682 -106.691208 203 12129ft 311kts
20-Aug-22 16:53 35.301936 -106.733535 202 10490ft 306kts
20-Aug-22 16:54 35.228680 -106.777474 205 9604ft 276kts
20-Aug-22 16:55 35.164571 -106.816902 205 8813ft 238kts
20-Aug-22 16:56 35.105369 -106.807209 158 8530ft 221kts
20-Aug-22 16:57 35.058584 -106.771696 117 7626ft 191kts
20-Aug-22 16:58 35.043954 -106.717090 88 6847ft 158kts
20-Aug-22 16:59 35.044569 -106.667878 86 6201ft 138kts
20-Aug-22 17:00 35.044395 -106.622348 90 5377ft 126kts
20-Aug-22 17:01 35.044229 -106.599107 82 5319ft 11kts
20-Aug-22 17:02 35.045166 -106.596297 38 5315ft 4kts
20-Aug-22 17:03 35.045820 -106.597160 270 5320ft 4kts
20-Aug-22 17:04 35.045816 -106.598493 269 5316ft 3kts
20-Aug-22 17:05 35.045687 -106.599991 265 5315ft 5kts
20-Aug-22 17:06 35.045717 -106.602779 272 5313ft 12kts
20-Aug-22 17:07 35.045753 -106.608849 269 5320ft 20kts
20-Aug-22 17:08 35.046305 -106.613198 353 5320ft 6kts
20-Aug-22 17:09 35.047010 -106.614076 307 5317ft 0kts
20-Aug-22 17:10 35.047010 -106.614076 307 5317ft 0kts
20-Aug-22 17:11 35.047010 -106.614076 307 5317ft 0kts
20-Aug-22 17:12 35.047010 -106.614076 307 5317ft 0kts
20-Aug-22 17:13 35.047010 -106.614076 307 5317ft 0kts
20-Aug-22 17:14 35.047010 -106.614076 307 5317ft 0kts
20-Aug-22 17:15 35.047010 -106.614076 307 5317ft 0kts
20-Aug-22 17:16 35.047010 -106.614076 307 5317ft 0kts

Navigation Log

Ident Type
Flight plan parsing failed, navigation log unavailable